Time;durP1;ratioP1;P1;durP2;ratioP2;P2;SDS_P1;SDS_P2;PMS_P1;PMS_P2;Temp;Humidity;BMP_temperature;BMP_pressure;BME280_temperature;BME280_humidity;BME280_pressure;Samples;Min_cycle;Max_cycle;Signal;HPM_P1;HPM_P2
2023/05/04 00:02:24;;;;;;;;;;;;;;;;;;4965587;28;19922;-58
2023/05/04 00:04:50;;;;;;;;;;;;;;;;;;4965922;28;20387;-57
2023/05/04 00:07:16;;;;;;;;;;;;;;;;;;4966499;28;19973;-58
2023/05/04 00:09:42;;;;;;;;;;;;;;;;;;4965857;28;19922;-58
2023/05/04 00:12:08;;;;;;;;;;;;;;;;;;4965890;28;19926;-58
2023/05/04 00:14:34;;;;;;;;;;;;;;;;;;4966093;28;20399;-58
2023/05/04 00:17:01;;;;;;;;;;;;;;;;;;4965736;28;19922;-58
2023/05/04 00:19:27;;;;;;;;;;;;;;;;;;4965632;28;19922;-57
2023/05/04 00:21:53;;;;;;;;;;;;;;;;;;4965637;28;20057;-58
2023/05/04 00:24:20;;;;;;;;;;;;;;;;;;4965954;28;20016;-58
2023/05/04 00:26:45;;;;;;;;;;;;;;;;;;4965809;28;19935;-57
2023/05/04 00:29:11;;;;;;;;;;;;;;;;;;4965932;28;19926;-58
2023/05/04 00:31:37;;;;;;;;;;;;;;;;;;4964891;28;20295;-58
2023/05/04 00:34:03;;;;;;;;;;;;;;;;;;4965736;28;19928;-57
2023/05/04 00:36:29;;;;;;;;;;;;;;;;;;4965912;28;20008;-58
2023/05/04 00:38:55;;;;;;;;;;;;;;;;;;4965455;28;20410;-58
2023/05/04 00:41:21;;;;;;;;;;;;;;;;;;4965142;28;19932;-59
2023/05/04 00:43:47;;;;;;;;;;;;;;;;;;4965656;28;20008;-58
2023/05/04 00:46:14;;;;;;;;;;;;;;;;;;4965665;28;20005;-58
2023/05/04 00:48:40;;;;;;;;;;;;;;;;;;4964433;28;19977;-58
2023/05/04 00:51:06;;;;;;;;;;;;;;;;;;4965414;28;19929;-58
2023/05/04 00:53:32;;;;;;;;;;;;;;;;;;4949246;28;20348;-58
2023/05/04 00:55:58;;;;;;;;;;;;;;;;;;4965606;28;19926;-58
2023/05/04 00:58:24;;;;;;;;;;;;;;;;;;4965150;28;20292;-58
2023/05/04 01:00:50;;;;;;;;;;;;;;;;;;4964652;28;20273;-57
2023/05/04 01:03:16;;;;;;;;;;;;;;;;;;5036171;23;20299;-63
2023/05/04 01:05:42;;;;;;;;;;;;;;;;;;4942918;28;19925;-63
2023/05/04 01:08:08;;;;;;;;;;;;;;;;;;4946886;28;19922;-64
2023/05/04 01:10:34;;;;;;;;;;;;;;;;;;4944217;28;20017;-63
2023/05/04 01:13:00;;;;;;;;;;;;;;;;;;4929033;28;19927;-63
2023/05/04 01:15:26;;;;;;;;;;;;;;;;;;4939222;28;20275;-63
2023/05/04 01:17:52;;;;;;;;;;;;;;;;;;4944538;28;19922;-63
2023/05/04 01:20:18;;;;;;;;;;;;;;;;;;4945449;28;19923;-63
2023/05/04 01:22:44;;;;;;;;;;;;;;;;;;4946037;28;20296;-63
2023/05/04 01:25:10;;;;;;;;;;;;;;;;;;4946112;28;20364;-64
2023/05/04 01:27:36;;;;;;;;;;;;;;;;;;4945758;28;20436;-63
2023/05/04 01:30:02;;;;;;;;;;;;;;;;;;4946030;28;19930;-63
2023/05/04 01:32:28;;;;;;;;;;;;;;;;;;4945745;28;19930;-63
2023/05/04 01:34:55;;;;;;;;;;;;;;;;;;4945498;28;19926;-64
2023/05/04 01:37:20;;;;;;;;;;;;;;;;;;4946149;28;20346;-64
2023/05/04 01:39:46;;;;;;;;;;;;;;;;;;4944720;28;19922;-63
2023/05/04 01:42:12;;;;;;;;;;;;;;;;;;4946008;28;19923;-63
2023/05/04 01:44:39;;;;;;;;;;;;;;;;;;4945844;28;19926;-63
2023/05/04 01:47:05;;;;;;;;;;;;;;;;;;4945084;28;19922;-63
2023/05/04 01:49:31;;;;;;;;;;;;;;;;;;4946036;28;20408;-62
2023/05/04 01:51:57;;;;;;;;;;;;;;;;;;4945481;28;19918;-63
2023/05/04 01:54:23;;;;;;;;;;;;;;;;;;4946088;28;20061;-63
2023/05/04 01:56:49;;;;;;;;;;;;;;;;;;4944811;28;19984;-63
2023/05/04 01:59:15;;;;;;;;;;;;;;;;;;4945341;28;19982;-62
2023/05/04 02:01:41;;;;;;;;;;;;;;;;;;4945985;28;20311;-62
2023/05/04 02:04:07;;;;;;;;;;;;;;;;;;4949207;28;19972;-63
2023/05/04 02:06:33;;;;;;;;;;;;;;;;;;4949166;28;19923;-62
2023/05/04 02:08:59;;;;;;;;;;;;;;;;;;4949534;28;19925;-63
2023/05/04 02:11:25;;;;;;;;;;;;;;;;;;4949410;28;19922;-62
2023/05/04 02:13:51;;;;;;;;;;;;;;;;;;4949029;28;19933;-63
2023/05/04 02:16:17;;;;;;;;;;;;;;;;;;4948426;28;20420;-63
2023/05/04 02:18:43;;;;;;;;;;;;;;;;;;4948215;28;19922;-62
2023/05/04 02:21:09;;;;;;;;;;;;;;;;;;4948410;28;19929;-63
2023/05/04 02:23:35;;;;;;;;;;;;;;;;;;4948911;28;19944;-63
2023/05/04 02:26:01;;;;;;;;;;;;;;;;;;4949460;28;19933;-61
2023/05/04 02:28:27;;;;;;;;;;;;;;;;;;4949333;28;19922;-64
2023/05/04 02:30:53;;;;;;;;;;;;;;;;;;4948337;28;19922;-63
2023/05/04 02:33:19;;;;;;;;;;;;;;;;;;4948107;28;19969;-63
2023/05/04 02:35:45;;;;;;;;;;;;;;;;;;4948456;28;20025;-63
2023/05/04 02:38:11;;;;;;;;;;;;;;;;;;4948826;28;20296;-63
2023/05/04 02:40:37;;;;;;;;;;;;;;;;;;4948000;28;19930;-63
2023/05/04 02:43:03;;;;;;;;;;;;;;;;;;4948633;28;19923;-63
2023/05/04 02:45:29;;;;;;;;;;;;;;;;;;4948937;28;19978;-63
2023/05/04 02:47:55;;;;;;;;;;;;;;;;;;4947532;28;19948;-63
2023/05/04 02:50:21;;;;;;;;;;;;;;;;;;4948661;28;19926;-62
2023/05/04 02:52:47;;;;;;;;;;;;;;;;;;4948384;28;19929;-63
2023/05/04 02:55:13;;;;;;;;;;;;;;;;;;4948636;28;19930;-62
2023/05/04 02:57:39;;;;;;;;;;;;;;;;;;4948319;28;19946;-62
2023/05/04 03:00:05;;;;;;;;;;;;;;;;;;4947549;28;19922;-62
2023/05/04 03:02:31;;;;;;;;;;;;;;;;;;4947451;28;19956;-62
2023/05/04 03:04:57;;;;;;;;;;;;;;;;;;4947030;28;19993;-63
2023/05/04 03:07:23;;;;;;;;;;;;;;;;;;4947404;28;19965;-63
2023/05/04 03:09:49;;;;;;;;;;;;;;;;;;4945468;28;20304;-63
2023/05/04 03:12:15;;;;;;;;;;;;;;;;;;4947017;28;19923;-63
2023/05/04 03:14:41;;;;;;;;;;;;;;;;;;4946885;28;20630;-63
2023/05/04 03:17:07;;;;;;;;;;;;;;;;;;4946375;28;19930;-62
2023/05/04 03:19:33;;;;;;;;;;;;;;;;;;4946448;28;19926;-63
2023/05/04 03:21:59;;;;;;;;;;;;;;;;;;4946329;28;20344;-63
2023/05/04 03:24:25;;;;;;;;;;;;;;;;;;4946938;28;19918;-63
2023/05/04 03:26:51;;;;;;;;;;;;;;;;;;4945303;29;19929;-62
2023/05/04 03:29:17;;;;;;;;;;;;;;;;;;4946742;28;19922;-63
2023/05/04 03:31:43;;;;;;;;;;;;;;;;;;4946059;28;20364;-63
2023/05/04 03:34:11;;;;;;;;;;;;;;;;;;4946618;28;19984;-63
2023/05/04 03:36:37;;;;;;;;;;;;;;;;;;4946707;28;20553;-64
2023/05/04 03:39:03;;;;;;;;;;;;;;;;;;4946673;28;19923;-63
2023/05/04 03:41:29;;;;;;;;;;;;;;;;;;4949105;28;20029;-64
2023/05/04 03:43:55;;;;;;;;;;;;;;;;;;4946527;28;20013;-63
2023/05/04 03:46:21;;;;;;;;;;;;;;;;;;4945988;28;19927;-63
2023/05/04 03:48:47;;;;;;;;;;;;;;;;;;4946098;28;20396;-63
2023/05/04 03:51:13;;;;;;;;;;;;;;;;;;4946351;28;19976;-63
2023/05/04 03:53:39;;;;;;;;;;;;;;;;;;4946500;28;20376;-64
2023/05/04 03:56:05;;;;;;;;;;;;;;;;;;4946381;28;19929;-64
2023/05/04 03:58:31;;;;;;;;;;;;;;;;;;4946588;28;20066;-62
2023/05/04 04:00:57;;;;;;;;;;;;;;;;;;4944942;28;20013;-64
2023/05/04 04:03:23;;;;;;;;;;;;;;;;;;4908634;28;1104125;-63
2023/05/04 04:05:49;;;;;;;;;;;;;;;;;;4946973;28;19969;-64
2023/05/04 04:08:15;;;;;;;;;;;;;;;;;;4947273;28;19969;-64
2023/05/04 04:10:41;;;;;;;;;;;;;;;;;;4946954;28;19926;-64
2023/05/04 04:13:07;;;;;;;;;;;;;;;;;;4946054;29;19998;-63
2023/05/04 04:15:33;;;;;;;;;;;;;;;;;;4947043;28;20435;-65
2023/05/04 04:17:59;;;;;;;;;;;;;;;;;;4945878;28;19932;-63
2023/05/04 04:20:25;;;;;;;;;;;;;;;;;;4946515;28;20296;-63
2023/05/04 04:22:51;;;;;;;;;;;;;;;;;;4945329;29;19974;-63
2023/05/04 04:25:17;;;;;;;;;;;;;;;;;;4946864;28;20001;-65
2023/05/04 04:27:43;;;;;;;;;;;;;;;;;;4946295;28;20371;-64
2023/05/04 04:30:09;;;;;;;;;;;;;;;;;;4946696;28;20005;-64
2023/05/04 04:32:36;;;;;;;;;;;;;;;;;;4944080;28;19929;-63
2023/05/04 04:35:03;;;;;;;;;;;;;;;;;;4946665;28;20024;-63
2023/05/04 04:37:29;;;;;;;;;;;;;;;;;;4947052;28;19930;-63
2023/05/04 04:39:55;;;;;;;;;;;;;;;;;;4946404;28;20022;-62
2023/05/04 04:42:21;;;;;;;;;;;;;;;;;;4946205;28;19927;-63
2023/05/04 04:44:48;;;;;;;;;;;;;;;;;;4945882;28;20396;-64
2023/05/04 04:47:15;;;;;;;;;;;;;;;;;;4945723;28;19922;-65
2023/05/04 04:49:42;;;;;;;;;;;;;;;;;;4946138;28;19950;-65
2023/05/04 04:52:08;;;;;;;;;;;;;;;;;;4928958;29;19933;-64
2023/05/04 04:54:34;;;;;;;;;;;;;;;;;;4946133;28;19969;-64
2023/05/04 04:57:00;;;;;;;;;;;;;;;;;;4946518;28;19965;-65
2023/05/04 04:59:27;;;;;;;;;;;;;;;;;;4945777;28;20384;-66
2023/05/04 05:01:53;;;;;;;;;;;;;;;;;;4944792;28;19923;-64
2023/05/04 05:04:20;;;;;;;;;;;;;;;;;;4945920;28;19937;-64
2023/05/04 05:06:46;;;;;;;;;;;;;;;;;;4928782;28;20377;-65
2023/05/04 05:09:13;;;;;;;;;;;;;;;;;;4945817;28;20344;-64
2023/05/04 05:11:39;;;;;;;;;;;;;;;;;;4945590;28;19923;-63
2023/05/04 05:14:05;;;;;;;;;;;;;;;;;;4928293;29;19922;-64
2023/05/04 05:16:31;;;;;;;;;;;;;;;;;;4945737;28;20395;-63
2023/05/04 05:18:57;;;;;;;;;;;;;;;;;;4945670;28;19930;-64
2023/05/04 05:21:23;;;;;;;;;;;;;;;;;;4945629;28;19922;-66
2023/05/04 05:23:49;;;;;;;;;;;;;;;;;;4945702;28;19957;-65
2023/05/04 05:26:15;;;;;;;;;;;;;;;;;;4945874;28;19965;-65
2023/05/04 05:28:41;;;;;;;;;;;;;;;;;;4945112;28;19930;-65
2023/05/04 05:31:07;;;;;;;;;;;;;;;;;;4944850;28;19926;-69
2023/05/04 05:33:33;;;;;;;;;;;;;;;;;;4945755;28;19922;-68
2023/05/04 05:35:59;;;;;;;;;;;;;;;;;;4945971;28;20376;-64
2023/05/04 05:38:25;;;;;;;;;;;;;;;;;;4949448;28;19958;-65
2023/05/04 05:40:52;;;;;;;;;;;;;;;;;;4948659;28;19926;-65
2023/05/04 05:43:18;;;;;;;;;;;;;;;;;;4941937;28;20332;-65
2023/05/04 05:45:44;;;;;;;;;;;;;;;;;;4948550;28;19929;-66
2023/05/04 05:48:10;;;;;;;;;;;;;;;;;;4949677;28;20074;-65
2023/05/04 05:50:36;;;;;;;;;;;;;;;;;;4931926;28;20372;-65
2023/05/04 05:53:02;;;;;;;;;;;;;;;;;;4949488;28;20029;-64
2023/05/04 05:55:28;;;;;;;;;;;;;;;;;;4949679;28;20080;-65
2023/05/04 05:57:54;;;;;;;;;;;;;;;;;;4948815;28;19998;-65
2023/05/04 06:00:20;;;;;;;;;;;;;;;;;;4948965;28;19926;-66
2023/05/04 06:02:46;;;;;;;;;;;;;;;;;;4947878;28;20431;-65
2023/05/04 06:05:12;;;;;;;;;;;;;;;;;;4949313;28;19930;-67
2023/05/04 06:07:38;;;;;;;;;;;;;;;;;;4931727;29;19961;-67
2023/05/04 06:10:04;;;;;;;;;;;;;;;;;;4939914;28;20038;-67
2023/05/04 06:12:30;;;;;;;;;;;;;;;;;;4935206;28;19935;-69
2023/05/04 06:14:56;;;;;;;;;;;;;;;;;;4946776;28;19932;-70
2023/05/04 06:17:22;;;;;;;;;;;;;;;;;;4945334;28;19926;-68
2023/05/04 06:19:50;;;;;;;;;;;;;;;;;;4946342;28;19984;-70
2023/05/04 06:22:16;;;;;;;;;;;;;;;;;;4940963;28;19927;-70
2023/05/04 06:24:42;;;;;;;;;;;;;;;;;;4938847;28;20411;-70
2023/05/04 06:27:08;;;;;;;;;;;;;;;;;;4937691;28;19931;-68
2023/05/04 06:29:37;;;;;;;;;;;;;;;;;;4942935;28;20281;-68
2023/05/04 06:32:03;;;;;;;;;;;;;;;;;;4947286;28;19922;-68
2023/05/04 06:34:29;;;;;;;;;;;;;;;;;;4948399;28;20477;-67
2023/05/04 06:36:55;;;;;;;;;;;;;;;;;;4948574;28;20450;-67
2023/05/04 06:39:21;;;;;;;;;;;;;;;;;;4948404;28;20129;-67
2023/05/04 06:41:47;;;;;;;;;;;;;;;;;;4947714;28;19923;-67
2023/05/04 06:44:13;;;;;;;;;;;;;;;;;;4948633;28;19922;-68
2023/05/04 06:46:39;;;;;;;;;;;;;;;;;;4946167;28;19945;-68
2023/05/04 06:49:05;;;;;;;;;;;;;;;;;;4948216;28;19984;-68
2023/05/04 06:51:31;;;;;;;;;;;;;;;;;;4947935;28;19925;-65
2023/05/04 06:53:59;;;;;;;;;;;;;;;;;;4948266;28;19922;-68
2023/05/04 06:56:25;;;;;;;;;;;;;;;;;;4948630;28;19929;-69
2023/05/04 06:58:51;;;;;;;;;;;;;;;;;;4948060;28;19926;-68
2023/05/04 07:01:17;;;;;;;;;;;;;;;;;;4945887;29;19923;-68
2023/05/04 07:03:43;;;;;;;;;;;;;;;;;;4947851;28;19922;-68
2023/05/04 07:06:10;;;;;;;;;;;;;;;;;;4948187;28;19922;-68
2023/05/04 07:08:36;;;;;;;;;;;;;;;;;;4947983;28;19922;-68
2023/05/04 07:11:02;;;;;;;;;;;;;;;;;;4948081;28;19929;-69
2023/05/04 07:13:28;;;;;;;;;;;;;;;;;;4948685;28;20343;-69
2023/05/04 07:15:54;;;;;;;;;;;;;;;;;;4945612;28;20395;-68
2023/05/04 07:18:21;;;;;;;;;;;;;;;;;;4947949;28;19922;-69
2023/05/04 07:20:47;;;;;;;;;;;;;;;;;;4947349;28;19998;-68
2023/05/04 07:23:13;;;;;;;;;;;;;;;;;;4946829;29;19922;-68
2023/05/04 07:25:39;;;;;;;;;;;;;;;;;;4947606;28;19957;-67
2023/05/04 07:28:05;;;;;;;;;;;;;;;;;;4946630;29;20466;-67
2023/05/04 07:30:31;;;;;;;;;;;;;;;;;;4947062;28;20002;-66
2023/05/04 07:32:57;;;;;;;;;;;;;;;;;;4947693;28;20033;-67
2023/05/04 07:35:23;;;;;;;;;;;;;;;;;;4947561;28;19941;-67
2023/05/04 07:37:49;;;;;;;;;;;;;;;;;;4947266;28;19937;-67
2023/05/04 07:40:15;;;;;;;;;;;;;;;;;;4947460;28;20017;-67
2023/05/04 07:42:41;;;;;;;;;;;;;;;;;;4947039;28;19933;-66
2023/05/04 07:45:08;;;;;;;;;;;;;;;;;;4947635;28;19926;-67
2023/05/04 07:47:34;;;;;;;;;;;;;;;;;;4946717;28;19964;-67
2023/05/04 07:50:00;;;;;;;;;;;;;;;;;;4946853;29;19958;-67
2023/05/04 07:52:26;;;;;;;;;;;;;;;;;;4947353;28;20379;-67
2023/05/04 07:54:52;;;;;;;;;;;;;;;;;;4946993;28;19933;-67
2023/05/04 07:57:18;;;;;;;;;;;;;;;;;;4947339;28;19927;-67
2023/05/04 07:59:44;;;;;;;;;;;;;;;;;;4945786;28;20443;-67
2023/05/04 08:02:11;;;;;;;;;;;;;;;;;;4946403;28;19932;-67
2023/05/04 08:04:37;;;;;;;;;;;;;;;;;;4946965;28;19922;-67
2023/05/04 08:07:03;;;;;;;;;;;;;;;;;;4946756;28;19985;-67
2023/05/04 08:09:29;;;;;;;;;;;;;;;;;;4947618;28;19973;-68
2023/05/04 08:11:55;;;;;;;;;;;;;;;;;;4946750;28;19949;-67
2023/05/04 08:14:21;;;;;;;;;;;;;;;;;;4947150;28;19930;-67
2023/05/04 08:16:47;;;;;;;;;;;;;;;;;;4946131;28;19922;-68
2023/05/04 08:19:13;;;;;;;;;;;;;;;;;;4946234;28;19969;-67
2023/05/04 08:21:39;;;;;;;;;;;;;;;;;;4946241;28;19926;-67
2023/05/04 08:24:06;;;;;;;;;;;;;;;;;;4946928;28;19965;-67
2023/05/04 08:26:31;;;;;;;;;;;;;;;;;;4946699;28;19926;-67
2023/05/04 08:28:57;;;;;;;;;;;;;;;;;;4947058;28;19918;-67
2023/05/04 08:31:23;;;;;;;;;;;;;;;;;;4945961;29;20291;-67
2023/05/04 08:33:50;;;;;;;;;;;;;;;;;;4946359;28;20009;-67
2023/05/04 08:36:16;;;;;;;;;;;;;;;;;;4946536;28;19977;-67
2023/05/04 08:38:42;;;;;;;;;;;;;;;;;;4946317;28;19930;-67
2023/05/04 08:41:08;;;;;;;;;;;;;;;;;;4946346;28;19932;-67
2023/05/04 08:43:35;;;;;;;;;;;;;;;;;;4946286;28;20277;-67
2023/05/04 08:46:02;;;;;;;;;;;;;;;;;;4946453;28;19923;-67
2023/05/04 08:48:28;;;;;;;;;;;;;;;;;;4946862;28;19926;-67
2023/05/04 08:50:54;;;;;;;;;;;;;;;;;;4945845;28;19977;-66
2023/05/04 08:53:20;;;;;;;;;;;;;;;;;;4946656;28;19922;-67
2023/05/04 08:55:46;;;;;;;;;;;;;;;;;;4946057;28;19922;-67
2023/05/04 08:58:12;;;;;;;;;;;;;;;;;;4945265;29;19965;-67
2023/05/04 09:00:38;;;;;;;;;;;;;;;;;;4944915;28;20388;-67
2023/05/04 09:03:04;;;;;;;;;;;;;;;;;;4946223;28;19926;-67
2023/05/04 09:05:30;;;;;;;;;;;;;;;;;;4946710;28;19926;-67
2023/05/04 09:07:56;;;;;;;;;;;;;;;;;;4946299;28;20018;-66
2023/05/04 09:10:22;;;;;;;;;;;;;;;;;;4944734;28;19927;-66
2023/05/04 09:12:49;;;;;;;;;;;;;;;;;;4946017;28;19928;-67
2023/05/04 09:15:16;;;;;;;;;;;;;;;;;;4945545;28;20269;-67
2023/05/04 09:17:42;;;;;;;;;;;;;;;;;;4945324;28;19927;-67
2023/05/04 09:20:08;;;;;;;;;;;;;;;;;;4944066;29;19933;-67
2023/05/04 09:22:34;;;;;;;;;;;;;;;;;;4946064;28;20276;-67
2023/05/04 09:25:00;;;;;;;;;;;;;;;;;;4944972;29;20381;-67
2023/05/04 09:27:26;;;;;;;;;;;;;;;;;;4946121;28;19923;-67
2023/05/04 09:29:52;;;;;;;;;;;;;;;;;;4944401;29;19918;-67
2023/05/04 09:32:18;;;;;;;;;;;;;;;;;;4952168;28;20020;-67
2023/05/04 09:34:45;;;;;;;;;;;;;;;;;;4946038;28;20480;-67
2023/05/04 09:37:11;;;;;;;;;;;;;;;;;;4945886;28;19988;-67
2023/05/04 09:39:37;;;;;;;;;;;;;;;;;;4945076;28;19929;-67
2023/05/04 09:42:04;;;;;;;;;;;;;;;;;;4945823;28;19922;-67
2023/05/04 09:44:31;;;;;;;;;;;;;;;;;;4946170;28;19973;-67
2023/05/04 09:46:57;;;;;;;;;;;;;;;;;;4944871;28;20035;-67
2023/05/04 09:49:23;;;;;;;;;;;;;;;;;;4945756;28;20596;-68
2023/05/04 09:51:50;;;;;;;;;;;;;;;;;;4945466;28;19977;-67
2023/05/04 09:54:16;;;;;;;;;;;;;;;;;;4945688;28;19986;-67
2023/05/04 09:56:42;;;;;;;;;;;;;;;;;;4945292;28;19930;-68
2023/05/04 09:59:08;;;;;;;;;;;;;;;;;;4943630;29;19970;-67
2023/05/04 10:01:34;;;;;;;;;;;;;;;;;;4943282;28;19922;-66
2023/05/04 10:04:01;;;;;;;;;;;;;;;;;;4945842;28;19942;-67
2023/05/04 10:06:27;;;;;;;;;;;;;;;;;;4946256;28;19942;-68
2023/05/04 10:08:53;;;;;;;;;;;;;;;;;;4945578;28;19929;-67
2023/05/04 10:11:20;;;;;;;;;;;;;;;;;;4945530;28;19922;-67
2023/05/04 10:13:46;;;;;;;;;;;;;;;;;;4944067;29;19929;-67
2023/05/04 10:16:13;;;;;;;;;;;;;;;;;;4944382;28;19927;-66
2023/05/04 10:18:39;;;;;;;;;;;;;;;;;;4944499;28;19929;-67
2023/05/04 10:21:05;;;;;;;;;;;;;;;;;;4945497;28;19984;-67
2023/05/04 10:23:31;;;;;;;;;;;;;;;;;;4948192;28;20397;-67
2023/05/04 10:25:57;;;;;;;;;;;;;;;;;;4948878;28;19981;-68
2023/05/04 10:28:24;;;;;;;;;;;;;;;;;;4948879;28;20372;-68
2023/05/04 10:30:49;;;;;;;;;;;;;;;;;;4947635;28;19922;-67
2023/05/04 10:33:16;;;;;;;;;;;;;;;;;;4947920;29;19930;-67
2023/05/04 10:35:42;;;;;;;;;;;;;;;;;;4947373;29;19984;-67
2023/05/04 10:38:08;;;;;;;;;;;;;;;;;;4947962;28;20380;-67
2023/05/04 10:40:34;;;;;;;;;;;;;;;;;;4948638;28;20013;-67
2023/05/04 10:43:00;;;;;;;;;;;;;;;;;;4948617;28;20419;-68
2023/05/04 10:45:26;;;;;;;;;;;;;;;;;;4947623;28;19923;-67
2023/05/04 10:47:52;;;;;;;;;;;;;;;;;;4948316;28;19958;-67
2023/05/04 10:50:18;;;;;;;;;;;;;;;;;;4947868;28;20407;-68
2023/05/04 10:52:44;;;;;;;;;;;;;;;;;;4947531;28;19980;-68
2023/05/04 10:55:10;;;;;;;;;;;;;;;;;;4948329;28;19923;-68
2023/05/04 10:57:36;;;;;;;;;;;;;;;;;;4946745;28;19922;-67
2023/05/04 11:00:03;;;;;;;;;;;;;;;;;;4945788;29;19926;-69
2023/05/04 11:02:29;;;;;;;;;;;;;;;;;;4948290;28;19926;-69
2023/05/04 11:04:55;;;;;;;;;;;;;;;;;;4930785;28;19933;-68
2023/05/04 11:07:21;;;;;;;;;;;;;;;;;;4947914;28;19934;-69
2023/05/04 11:09:47;;;;;;;;;;;;;;;;;;4947801;28;19923;-68
2023/05/04 11:12:13;;;;;;;;;;;;;;;;;;4947912;28;19922;-69
2023/05/04 11:14:41;;;;;;;;;;;;;;;;;;4947749;28;19923;-69
2023/05/04 11:17:07;;;;;;;;;;;;;;;;;;4947476;28;20407;-69
2023/05/04 11:19:34;;;;;;;;;;;;;;;;;;4947290;28;19999;-70
2023/05/04 11:22:00;;;;;;;;;;;;;;;;;;4948006;28;19923;-69
2023/05/04 11:24:32;;;;;;;;;;;;;;;;;;4947890;28;19929;-71
2023/05/04 11:26:58;;;;;;;;;;;;;;;;;;4947378;28;20001;-69
2023/05/04 11:29:24;;;;;;;;;;;;;;;;;;4947328;28;19966;-70
2023/05/04 11:31:50;;;;;;;;;;;;;;;;;;4929039;29;20467;-70
2023/05/04 11:34:16;;;;;;;;;;;;;;;;;;4945717;28;19922;-68
2023/05/04 11:36:42;;;;;;;;;;;;;;;;;;4946385;28;19930;-68
2023/05/04 11:39:08;;;;;;;;;;;;;;;;;;4947323;28;19926;-67
2023/05/04 11:41:35;;;;;;;;;;;;;;;;;;4947161;28;19962;-69
2023/05/04 11:44:02;;;;;;;;;;;;;;;;;;4948125;28;19929;-64
2023/05/04 11:46:28;;;;;;;;;;;;;;;;;;4947214;28;19922;-67
2023/05/04 11:48:54;;;;;;;;;;;;;;;;;;4947343;28;19984;-68
2023/05/04 11:51:20;;;;;;;;;;;;;;;;;;4947005;28;19969;-65
2023/05/04 11:53:46;;;;;;;;;;;;;;;;;;4947068;28;19922;-66
2023/05/04 11:56:12;;;;;;;;;;;;;;;;;;4946120;28;19963;-66
2023/05/04 11:58:38;;;;;;;;;;;;;;;;;;4946963;28;19929;-67
2023/05/04 12:01:04;;;;;;;;;;;;;;;;;;4946338;28;19922;-67
2023/05/04 12:03:31;;;;;;;;;;;;;;;;;;4947162;28;19970;-67
2023/05/04 12:05:57;;;;;;;;;;;;;;;;;;4947216;28;19922;-67
2023/05/04 12:08:25;;;;;;;;;;;;;;;;;;4946687;28;19925;-66
2023/05/04 12:10:51;;;;;;;;;;;;;;;;;;4946677;28;19922;-67
2023/05/04 12:13:17;;;;;;;;;;;;;;;;;;4946910;28;19930;-67
2023/05/04 12:15:43;;;;;;;;;;;;;;;;;;4945547;28;19998;-69
2023/05/04 12:18:09;;;;;;;;;;;;;;;;;;4946690;28;19989;-68
2023/05/04 12:20:35;;;;;;;;;;;;;;;;;;4946202;28;19937;-68
2023/05/04 12:23:01;;;;;;;;;;;;;;;;;;4947097;28;20338;-64
2023/05/04 12:25:27;;;;;;;;;;;;;;;;;;4946991;28;20265;-66
2023/05/04 12:27:53;;;;;;;;;;;;;;;;;;4946358;28;19923;-66
2023/05/04 12:30:19;;;;;;;;;;;;;;;;;;4945990;28;19976;-66
2023/05/04 12:32:45;;;;;;;;;;;;;;;;;;4946216;28;19962;-67
2023/05/04 12:35:11;;;;;;;;;;;;;;;;;;4946451;28;20462;-66
2023/05/04 12:37:37;;;;;;;;;;;;;;;;;;4946348;28;19984;-66
2023/05/04 12:40:03;;;;;;;;;;;;;;;;;;4946266;28;19922;-67
2023/05/04 12:42:30;;;;;;;;;;;;;;;;;;4946955;28;19926;-66
2023/05/04 12:44:57;;;;;;;;;;;;;;;;;;4945125;28;20403;-67
2023/05/04 12:47:23;;;;;;;;;;;;;;;;;;4946563;28;19929;-71
2023/05/04 12:49:49;;;;;;;;;;;;;;;;;;4946072;28;19923;-70
2023/05/04 12:52:15;;;;;;;;;;;;;;;;;;4925922;29;19922;-71
2023/05/04 12:54:41;;;;;;;;;;;;;;;;;;4934664;28;19950;-70
2023/05/04 13:03:12;;;;;;;;;;;;;;;;;;4941356;28;19921;-71
2023/05/04 13:05:38;;;;;;;;;;;;;;;;;;4945820;28;19922;-70
2023/05/04 13:08:04;;;;;;;;;;;;;;;;;;4945739;28;20050;-71
2023/05/04 13:10:30;;;;;;;;;;;;;;;;;;4946228;28;20297;-70
2023/05/04 13:12:56;;;;;;;;;;;;;;;;;;4946236;28;19922;-70
2023/05/04 13:15:22;;;;;;;;;;;;;;;;;;4944461;28;20301;-70
2023/05/04 13:17:48;;;;;;;;;;;;;;;;;;4945212;28;20431;-71
2023/05/04 13:20:15;;;;;;;;;;;;;;;;;;4945262;28;19922;-71
2023/05/04 13:22:41;;;;;;;;;;;;;;;;;;4945254;28;19945;-71
2023/05/04 13:25:07;;;;;;;;;;;;;;;;;;4945442;28;19977;-70
2023/05/04 13:27:33;;;;;;;;;;;;;;;;;;4945313;28;19922;-71
2023/05/04 13:30:02;;;;;;;;;;;;;;;;;;4944826;28;19929;-71
2023/05/04 13:32:28;;;;;;;;;;;;;;;;;;4946044;28;20373;-71
2023/05/04 13:34:54;;;;;;;;;;;;;;;;;;4944684;28;20009;-70
2023/05/04 13:37:20;;;;;;;;;;;;;;;;;;4945762;28;20021;-72
2023/05/04 13:39:46;;;;;;;;;;;;;;;;;;4945046;28;20013;-71
2023/05/04 13:42:12;;;;;;;;;;;;;;;;;;4945429;28;19926;-71
2023/05/04 13:44:43;;;;;;;;;;;;;;;;;;4944204;28;20395;-71
2023/05/04 13:47:09;;;;;;;;;;;;;;;;;;4945641;28;20005;-69
2023/05/04 13:49:35;;;;;;;;;;;;;;;;;;4945072;28;20005;-68
2023/05/04 13:52:01;;;;;;;;;;;;;;;;;;4945766;28;19922;-69
2023/05/04 13:54:27;;;;;;;;;;;;;;;;;;4945505;28;19922;-69
2023/05/04 13:56:53;;;;;;;;;;;;;;;;;;4945145;28;19922;-69
2023/05/04 13:59:19;;;;;;;;;;;;;;;;;;4948819;28;20005;-69
2023/05/04 14:01:45;;;;;;;;;;;;;;;;;;4948654;28;19922;-69
2023/05/04 14:04:11;;;;;;;;;;;;;;;;;;4948895;28;20645;-66
2023/05/04 14:06:37;;;;;;;;;;;;;;;;;;4948941;28;19929;-67
2023/05/04 14:09:04;;;;;;;;;;;;;;;;;;4949066;28;19922;-66
2023/05/04 14:11:30;;;;;;;;;;;;;;;;;;4932022;28;20426;-67
2023/05/04 14:13:56;;;;;;;;;;;;;;;;;;4948777;28;19922;-66
2023/05/04 14:16:22;;;;;;;;;;;;;;;;;;4948448;28;20001;-68
2023/05/04 14:18:49;;;;;;;;;;;;;;;;;;4948167;28;20013;-66
2023/05/04 14:21:15;;;;;;;;;;;;;;;;;;4948900;28;19922;-67
2023/05/04 14:23:41;;;;;;;;;;;;;;;;;;4939999;29;20500;-67
2023/05/04 14:26:07;;;;;;;;;;;;;;;;;;4949058;28;19923;-67
2023/05/04 14:28:33;;;;;;;;;;;;;;;;;;4948813;28;19922;-67
2023/05/04 14:31:07;;;;;;;;;;;;;;;;;;4948121;28;20013;-66
2023/05/04 14:33:33;;;;;;;;;;;;;;;;;;4948882;28;19977;-69
2023/05/04 14:35:59;;;;;;;;;;;;;;;;;;4948783;28;19934;-68
2023/05/04 14:38:25;;;;;;;;;;;;;;;;;;4948755;28;19977;-66
2023/05/04 14:40:54;;;;;;;;;;;;;;;;;;4948098;28;20154;-67
2023/05/04 14:43:20;;;;;;;;;;;;;;;;;;4948814;28;19970;-65
2023/05/04 14:45:46;;;;;;;;;;;;;;;;;;4947724;28;19923;-65
2023/05/04 14:48:12;;;;;;;;;;;;;;;;;;4948605;28;20426;-64
2023/05/04 14:50:38;;;;;;;;;;;;;;;;;;4947715;28;20006;-65
2023/05/04 14:53:04;;;;;;;;;;;;;;;;;;4948665;28;19922;-65
2023/05/04 14:55:32;;;;;;;;;;;;;;;;;;4959298;28;20561;-66
2023/05/04 14:57:58;;;;;;;;;;;;;;;;;;4948340;28;19949;-65
2023/05/04 15:00:24;;;;;;;;;;;;;;;;;;4947627;28;20373;-65
2023/05/04 15:02:50;;;;;;;;;;;;;;;;;;4947887;28;19950;-65
2023/05/04 15:05:16;;;;;;;;;;;;;;;;;;4948147;28;19929;-65
2023/05/04 15:07:42;;;;;;;;;;;;;;;;;;4947597;28;19938;-67
2023/05/04 15:10:09;;;;;;;;;;;;;;;;;;4947310;28;19927;-68
2023/05/04 15:12:36;;;;;;;;;;;;;;;;;;4947914;28;20226;-66
2023/05/04 15:15:02;;;;;;;;;;;;;;;;;;4947379;28;20659;-67
2023/05/04 15:17:29;;;;;;;;;;;;;;;;;;4947871;28;20513;-69
2023/05/04 15:19:55;;;;;;;;;;;;;;;;;;4947411;28;19970;-69
2023/05/04 15:22:21;;;;;;;;;;;;;;;;;;4947647;28;19933;-69
2023/05/04 15:24:47;;;;;;;;;;;;;;;;;;4947873;28;20008;-67
2023/05/04 15:27:13;;;;;;;;;;;;;;;;;;4947817;28;19929;-67
2023/05/04 15:29:39;;;;;;;;;;;;;;;;;;4946077;28;19930;-67
2023/05/04 15:32:05;;;;;;;;;;;;;;;;;;4947750;28;20308;-68
2023/05/04 15:34:31;;;;;;;;;;;;;;;;;;4948230;28;20001;-66
2023/05/04 15:36:57;;;;;;;;;;;;;;;;;;4947812;28;19952;-68
2023/05/04 15:39:23;;;;;;;;;;;;;;;;;;4947579;28;20348;-67
2023/05/04 15:41:49;;;;;;;;;;;;;;;;;;4946001;29;19923;-66
2023/05/04 15:44:15;;;;;;;;;;;;;;;;;;4946917;28;19922;-70
2023/05/04 15:46:41;;;;;;;;;;;;;;;;;;4947109;28;19953;-66
2023/05/04 15:49:08;;;;;;;;;;;;;;;;;;4946740;28;20001;-70
2023/05/04 15:51:34;;;;;;;;;;;;;;;;;;4946974;28;19930;-68
2023/05/04 15:54:00;;;;;;;;;;;;;;;;;;4947704;28;20372;-67
2023/05/04 15:56:26;;;;;;;;;;;;;;;;;;4947228;28;19922;-68
2023/05/04 15:58:52;;;;;;;;;;;;;;;;;;4946947;28;19954;-69
2023/05/04 16:01:18;;;;;;;;;;;;;;;;;;4946586;28;19976;-67
2023/05/04 16:03:44;;;;;;;;;;;;;;;;;;4946725;28;19923;-66
2023/05/04 16:06:11;;;;;;;;;;;;;;;;;;4947026;28;19930;-65
2023/05/04 16:08:37;;;;;;;;;;;;;;;;;;4946042;28;19972;-66
2023/05/04 16:11:03;;;;;;;;;;;;;;;;;;4947015;28;19931;-66
2023/05/04 16:13:29;;;;;;;;;;;;;;;;;;4947202;28;19922;-66
2023/05/04 16:15:55;;;;;;;;;;;;;;;;;;4945774;28;20028;-66
2023/05/04 16:18:21;;;;;;;;;;;;;;;;;;4946194;28;20444;-65
2023/05/04 16:20:47;;;;;;;;;;;;;;;;;;4946020;28;19929;-66
2023/05/04 16:23:13;;;;;;;;;;;;;;;;;;4946835;28;19922;-66
2023/05/04 16:25:39;;;;;;;;;;;;;;;;;;4946355;28;19949;-67
2023/05/04 16:28:05;;;;;;;;;;;;;;;;;;4946184;28;19923;-73
2023/05/04 16:30:33;;;;;;;;;;;;;;;;;;4945948;28;19970;-72
2023/05/04 16:32:58;;;;;;;;;;;;;;;;;;4946583;28;19929;-70
2023/05/04 16:35:24;;;;;;;;;;;;;;;;;;4940081;29;20300;-71
2023/05/04 16:37:50;;;;;;;;;;;;;;;;;;4944128;28;19927;-71
2023/05/04 16:40:17;;;;;;;;;;;;;;;;;;4944092;28;19968;-71
2023/05/04 16:42:43;;;;;;;;;;;;;;;;;;4944241;28;19930;-70
2023/05/04 16:45:10;;;;;;;;;;;;;;;;;;4943079;28;19926;-74